Share

Augusta, AR

10:15 PM CDT on April 23, 2014 (GMT -0500)
Searcy Municipal (KSRC) Elev 266 ft | 35.21 °N, 91.74 °W | Change Station
Active Advisory: Flood Warning

Current weather conditions updated 19 minutes ago

Clear
Clear
63 °F
Feels Like 63 °F
N
6
Wind Variable Wind from East
Sunrise 6:23 AM
Sunset 7:44 PM
Moon Waning Crescent

Tomorrow is forecast to be Warmer than today. Afternoon thunderstorms.

Pressure 29.92 in
Visibility 10.0 miles
Clouds Clear
Dew Point 46 °F
Humidity 55%
Rainfall 0.00 in
Snow Depth Not available.
UV 0 out of 16
Pollen 9.40 out of 12
Air Quality Not available.
Flu Activity Sporadic
METAR KSRC 240256Z AUTO 08005KT 10SM CLR 17/08 A2992 RMK AO2

More Conditions Fewer Conditions

Pressure 29.92 in
Visibility 10.0 miles
Clouds Clear
Dew Point 46 °F
Humidity 55%
Rainfall 0.00 in
Snow Depth Not available.
UV 0 out of 16
Pollen 9.40 out of 12
Air Quality Not available.
Flu Activity Sporadic
METAR KSRC 240256Z AUTO 08005KT 10SM CLR 17/08 A2992 RMK AO2

More Conditions Fewer Conditions

10-Day Weather Forecast

Almanac

Astronomy

Apr. 23, 2014 Rise Set
Actual Time 6:23 AM CDT 7:44 PM CDT
Civil Twilight 5:56 AM CDT 8:11 PM CDT
Nautical Twilight 5:24 AM CDT 8:43 PM CDT
Astronomical Twilight 4:51 AM CDT 9:16 PM CDT
Moon 2:41 AM CDT (4/23) 2:06 PM CDT (4/23)
Length of Visible Light 14h 14m
Length of Day
13h 21m
Tomorrow will be 2m 2s longer.
Waning Crescent, 30% of the Moon is Illuminated
Today
Waning Crescent
Apr 29
New
May 6
First Quarter
May 14
Full
May 21
Last Quarter

Today's Extremes

State Highs State Lows

Community

  • Nestled In
    Nestled In
  • Stunning Sunrise
    Stunning Sunrise
  • spring flowers
    spring flowers
  • Earth Day Spectrum Ove' Blue
    Earth Day Spectrum Ove' Blue
  • BARN B&W
    BARN B&W

WunderPhotos

Upload Photos

1,704,531 photos uploaded!

WunderBlogs® & News

Nearby

Snow Depth

Station Depth Elevation
No new snow has been reported.

Coastal Water Temperatures

Place Temperature
No Stations Reporting

Earthquake Activity

City Distance Mag. Time & Date
Ridgely, Tennessee 124 miles 2.5 10:13 PM CDT
2014-04-19
Minimum magnitude displayed is 2.5.

Nearby Weather Stations

Station Location Temp. Dew Point Humidity Wind Precip. Elev Updated Type
MesoWest FAIROK , Hunter, AR 68 °F - - North  at  - 0.00 in / hr 220 ft 9:25 PM CDT MADIS
MesoWest JIFFY1 , Bradford, AR 65 °F - - North  at  - 0.00 in / hr 228 ft 8:15 PM CDT MADIS
MesoWest TILTON , Hickory Ridge, AR 66 °F - - North  at  - 0.00 in / hr 225 ft 8:40 PM CDT MADIS
MesoWest FARGO , Hunter, AR 68 °F - - North  at  - 0.00 in / hr 212 ft 8:10 PM CDT MADIS
Floral & Main, Pleasant Plains, AR 55.9 °F 43 °F 63% ESE  at  0.0 mph 0.00 in / hr 630 ft 10:15 PM CDT Normal
MesoWest MCRAE1 , Garner, AR 65 °F - - North  at  - 0.00 in / hr 224 ft 7:45 PM CDT MADIS

Show More Stations Show Fewer Stations

What do you think?

We're not finished. Please let us know what you like, what you don't like, and what you are still missing.